Time;durP1;ratioP1;P1;durP2;ratioP2;P2;SDS_P1;SDS_P2;PMS_P1;PMS_P2;Temp;Humidity;BMP_temperature;BMP_pressure;BME280_temperature;BME280_humidity;BME280_pressure;Samples;Min_cycle;Max_cycle;Signal;HPM_P1;HPM_P2
2022/08/19 00:01:29;;;;;;;5.82;2.75;;;;;;;;;;5019259;28;20045;-77
2022/08/19 00:03:58;;;;;;;5.22;3.00;;;;;;;;;;5013684;28;20050;-78
2022/08/19 00:06:26;;;;;;;5.15;3.30;;;;;;;;;;5015107;28;20046;-79
2022/08/19 00:08:53;;;;;;;4.53;3.28;;;;;;;;;;5024403;28;20057;-80
2022/08/19 00:11:20;;;;;;;8.80;3.45;;;;;;;;;;5017274;28;20046;-78
2022/08/19 00:13:52;;;;;;;5.90;3.70;;;;;;;;;;5015491;28;20065;-79
2022/08/19 00:16:23;;;;;;;8.85;4.05;;;;;;;;;;5016935;28;20095;-80
2022/08/19 00:18:53;;;;;;;8.05;4.10;;;;;;;;;;5021477;28;20059;-80
2022/08/19 00:21:20;;;;;;;5.22;3.50;;;;;;;;;;5017631;28;20077;-80
2022/08/19 00:23:47;;;;;;;8.48;3.80;;;;;;;;;;5011413;28;20057;-79
2022/08/19 00:26:14;;;;;;;5.65;3.97;;;;;;;;;;5024801;28;20046;-79
2022/08/19 00:28:41;;;;;;;6.45;3.97;;;;;;;;;;5021362;28;20133;-80
2022/08/19 00:31:09;;;;;;;8.32;3.92;;;;;;;;;;5016077;28;20136;-79
2022/08/19 00:33:37;;;;;;;4.90;3.70;;;;;;;;;;5012648;28;20080;-80
2022/08/19 00:36:06;;;;;;;5.72;3.83;;;;;;;;;;5022496;28;20059;-80
2022/08/19 00:38:34;;;;;;;6.35;3.60;;;;;;;;;;5023667;28;20098;-80
2022/08/19 00:41:05;;;;;;;6.93;3.88;;;;;;;;;;5015485;28;20050;-79
2022/08/19 00:43:32;;;;;;;6.88;3.83;;;;;;;;;;5013681;28;20046;-79
2022/08/19 00:46:01;;;;;;;7.32;3.35;;;;;;;;;;5015738;28;20054;-80
2022/08/19 00:48:28;;;;;;;6.13;3.00;;;;;;;;;;5022819;28;20055;-80
2022/08/19 00:50:56;;;;;;;6.13;2.50;;;;;;;;;;5022869;28;20058;-80
2022/08/19 00:53:26;;;;;;;5.50;2.35;;;;;;;;;;5023309;28;20050;-80
2022/08/19 00:55:55;;;;;;;3.10;2.20;;;;;;;;;;5018748;28;20054;-80
2022/08/19 00:58:25;;;;;;;4.38;2.28;;;;;;;;;;5019104;28;20082;-80
2022/08/19 01:00:52;;;;;;;4.88;2.38;;;;;;;;;;5026326;28;20056;-80
2022/08/19 01:03:20;;;;;;;4.38;2.67;;;;;;;;;;5025531;28;21230;-80
2022/08/19 01:05:49;;;;;;;3.15;2.40;;;;;;;;;;5021682;28;20053;-79
2022/08/19 01:08:18;;;;;;;5.25;2.65;;;;;;;;;;5019785;28;20057;-80
2022/08/19 01:10:51;;;;;;;4.60;2.63;;;;;;;;;;5020043;28;20044;-81
2022/08/19 01:13:21;;;;;;;4.20;2.65;;;;;;;;;;5014980;28;20050;-80
2022/08/19 01:15:54;;;;;;;4.63;2.53;;;;;;;;;;5017507;28;20050;-79
2022/08/19 01:18:21;;;;;;;;;;;;;;;;;;5017616;28;20054;-78
2022/08/19 01:20:48;;;;;;;8.15;3.33;;;;;;;;;;5023069;28;45710;-79
2022/08/19 01:23:16;;;;;;;4.00;3.15;;;;;;;;;;5017542;28;20049;-79
2022/08/19 01:25:45;;;;;;;5.28;3.72;;;;;;;;;;5020463;28;20105;-79
2022/08/19 01:28:21;;;;;;;5.47;3.38;;;;;;;;;;5016759;28;20065;-79
2022/08/19 01:31:11;;;;;;;5.15;3.40;;;;;;;;;;5024888;28;20049;-79
2022/08/19 01:33:56;;;;;;;12.90;4.32;;;;;;;;;;5024843;28;20057;-79
2022/08/19 01:36:37;;;;;;;6.32;3.63;;;;;;;;;;5016306;28;20870;-79
2022/08/19 01:39:06;;;;;;;13.52;3.92;;;;;;;;;;5017900;28;20062;-79
2022/08/19 01:41:33;;;;;;;8.77;4.70;;;;;;;;;;5021449;28;20046;-79
2022/08/19 01:44:03;;;;;;;5.00;3.50;;;;;;;;;;5013956;28;20054;-79
2022/08/19 01:46:46;;;;;;;7.93;4.00;;;;;;;;;;5020515;28;20049;-79
2022/08/19 01:49:15;;;;;;;5.53;3.22;;;;;;;;;;5019026;28;20027;-79
2022/08/19 01:51:43;;;;;;;6.03;3.35;;;;;;;;;;5020361;28;20057;-81
2022/08/19 01:54:11;;;;;;;6.68;3.58;;;;;;;;;;5014976;28;20146;-80
2022/08/19 01:56:40;;;;;;;5.03;3.15;;;;;;;;;;5017706;28;20059;-80
2022/08/19 01:59:11;;;;;;;6.70;3.90;;;;;;;;;;5015496;28;20105;-81
2022/08/19 02:01:38;;;;;;;5.03;3.42;;;;;;;;;;5017303;28;20061;-79
2022/08/19 02:04:05;;;;;;;7.53;3.65;;;;;;;;;;5021928;28;20050;-79
2022/08/19 02:06:32;;;;;;;5.80;3.40;;;;;;;;;;5023751;28;20106;-79
2022/08/19 02:09:00;;;;;;;6.30;3.40;;;;;;;;;;5019178;28;20052;-79
2022/08/19 02:11:37;;;;;;;8.15;3.38;;;;;;;;;;5025920;28;20050;-79
2022/08/19 02:14:06;;;;;;;8.65;3.60;;;;;;;;;;5016724;28;20058;-79
2022/08/19 02:16:34;;;;;;;7.00;3.45;;;;;;;;;;5013386;28;20047;-80
2022/08/19 02:19:02;;;;;;;8.32;3.40;;;;;;;;;;5018170;28;20173;-79
2022/08/19 02:21:30;;;;;;;7.32;3.30;;;;;;;;;;5014700;28;20053;-79
2022/08/19 02:23:57;;;;;;;5.18;3.47;;;;;;;;;;5019796;28;20058;-79
2022/08/19 02:26:28;;;;;;;8.80;3.35;;;;;;;;;;5022823;28;20051;-79
2022/08/19 02:28:56;;;;;;;6.10;3.78;;;;;;;;;;5025815;28;20773;-80
2022/08/19 02:31:27;;;;;;;4.07;2.75;;;;;;;;;;5017813;28;20531;-79
2022/08/19 02:33:56;;;;;;;4.50;3.30;;;;;;;;;;5028540;28;20460;-78
2022/08/19 02:36:24;;;;;;;5.85;3.33;;;;;;;;;;5019359;28;20041;-79
2022/08/19 02:38:51;;;;;;;6.28;3.75;;;;;;;;;;5021841;28;20094;-79
2022/08/19 02:41:23;;;;;;;5.75;3.78;;;;;;;;;;5026259;28;20043;-79
2022/08/19 02:43:53;;;;;;;5.63;3.90;;;;;;;;;;5030427;28;20050;-79
2022/08/19 02:46:40;;;;;;;9.20;4.00;;;;;;;;;;5028823;28;20523;-79
2022/08/19 02:49:08;;;;;;;9.45;4.55;;;;;;;;;;5031275;28;20056;-79
2022/08/19 02:51:38;;;;;;;5.97;3.97;;;;;;;;;;5027371;28;20056;-77
2022/08/19 02:54:06;;;;;;;7.28;4.30;;;;;;;;;;5029433;28;20053;-80
2022/08/19 02:56:35;;;;;;;11.98;5.43;;;;;;;;;;5018854;28;20051;-80
2022/08/19 02:59:02;;;;;;;9.32;4.88;;;;;;;;;;5030900;28;20049;-79
2022/08/19 03:01:31;;;;;;;12.93;4.95;;;;;;;;;;5019809;28;20052;-80
2022/08/19 03:04:00;;;;;;;11.38;4.68;;;;;;;;;;5026498;28;20042;-79
2022/08/19 03:06:28;;;;;;;10.07;4.25;;;;;;;;;;5027856;28;20047;-79
2022/08/19 03:08:56;;;;;;;7.68;4.15;;;;;;;;;;5024534;28;20051;-79
2022/08/19 03:11:24;;;;;;;5.63;3.85;;;;;;;;;;5024670;28;20046;-79
2022/08/19 03:13:53;;;;;;;8.63;4.20;;;;;;;;;;5026769;28;20046;-79
2022/08/19 03:16:21;;;;;;;6.72;4.47;;;;;;;;;;5026863;28;20042;-79
2022/08/19 03:18:49;;;;;;;8.95;4.18;;;;;;;;;;5023360;28;20034;-80
2022/08/19 03:21:23;;;;;;;11.70;4.30;;;;;;;;;;5028370;28;20082;-79
2022/08/19 03:23:54;;;;;;;10.40;3.33;;;;;;;;;;5025033;28;20054;-81
2022/08/19 03:26:21;;;;;;;7.10;3.35;;;;;;;;;;5025359;28;20041;-79
2022/08/19 03:28:49;;;;;;;5.90;3.50;;;;;;;;;;5021161;28;20042;-80
2022/08/19 03:31:25;;;;;;;8.38;4.38;;;;;;;;;;5027844;28;20106;-78
2022/08/19 03:34:15;;;;;;;7.57;3.85;;;;;;;;;;5018557;28;20117;-78
2022/08/19 03:36:42;;;;;;;7.25;4.25;;;;;;;;;;5024116;28;20090;-78
2022/08/19 03:39:10;;;;;;;9.50;4.35;;;;;;;;;;5032550;28;20082;-78
2022/08/19 03:41:39;;;;;;;13.10;4.88;;;;;;;;;;5026645;28;20141;-78
2022/08/19 03:44:12;;;;;;;5.65;4.10;;;;;;;;;;5029829;28;20058;-80
2022/08/19 03:46:45;;;;;;;7.03;4.10;;;;;;;;;;5021996;28;20114;-80
2022/08/19 03:49:12;;;;;;;8.27;4.28;;;;;;;;;;5026771;28;20053;-81
2022/08/19 03:51:41;;;;;;;11.75;4.88;;;;;;;;;;5021383;28;20101;-78
2022/08/19 03:54:10;;;;;;;11.35;4.60;;;;;;;;;;5020359;28;20806;-80
2022/08/19 03:56:38;;;;;;;10.30;6.05;;;;;;;;;;5025150;28;20052;-81
2022/08/19 03:59:06;;;;;;;9.23;5.05;;;;;;;;;;5018007;28;20046;-81
2022/08/19 04:01:35;;;;;;;8.98;4.60;;;;;;;;;;5022910;28;20058;-80
2022/08/19 04:04:03;;;;;;;58.53;6.82;;;;;;;;;;5019221;28;20079;-81
2022/08/19 04:06:35;;;;;;;64.88;7.88;;;;;;;;;;5012366;28;20042;-80
2022/08/19 04:09:08;;;;;;;21.30;7.13;;;;;;;;;;5020685;28;20054;-81
2022/08/19 04:11:41;;;;;;;47.55;7.45;;;;;;;;;;5022079;28;20437;-80
2022/08/19 04:14:15;;;;;;;26.67;7.35;;;;;;;;;;5022248;28;20101;-81
2022/08/19 04:16:44;;;;;;;89.07;8.90;;;;;;;;;;5016890;28;20046;-80
2022/08/19 04:19:11;;;;;;;14.02;7.43;;;;;;;;;;5025848;28;20172;-81
2022/08/19 04:21:39;;;;;;;43.33;8.32;;;;;;;;;;5013452;28;20057;-81
2022/08/19 04:24:07;;;;;;;32.90;7.95;;;;;;;;;;5018155;28;20060;-81
2022/08/19 04:26:36;;;;;;;10.85;7.15;;;;;;;;;;5013549;28;20049;-81
2022/08/19 04:29:10;;;;;;;10.43;6.65;;;;;;;;;;5021841;28;20086;-81
2022/08/19 04:31:40;;;;;;;17.38;6.88;;;;;;;;;;5031282;28;21123;-81
2022/08/19 04:34:10;;;;;;;8.25;6.50;;;;;;;;;;5022420;28;20132;-81
2022/08/19 04:36:39;;;;;;;16.63;7.75;;;;;;;;;;5016743;28;20105;-81
2022/08/19 04:39:08;;;;;;;12.98;6.22;;;;;;;;;;5018317;28;20058;-81
2022/08/19 04:44:21;;;;;;;8.95;6.93;;;;;;;;;;5019531;28;20492;-80
2022/08/19 04:46:49;;;;;;;9.93;6.00;;;;;;;;;;5017343;28;20050;-81
2022/08/19 04:49:22;;;;;;;12.45;6.55;;;;;;;;;;5019545;28;20058;-79
2022/08/19 04:51:51;;;;;;;9.10;6.38;;;;;;;;;;5016007;28;20050;-79
2022/08/19 04:54:22;;;;;;;8.75;6.15;;;;;;;;;;5015148;28;20446;-81
2022/08/19 04:57:06;;;;;;;14.32;6.90;;;;;;;;;;5017875;28;20053;-79
2022/08/19 04:59:34;;;;;;;11.77;7.20;;;;;;;;;;5015412;28;20043;-79
2022/08/19 05:02:02;;;;;;;10.52;6.80;;;;;;;;;;5015048;28;20496;-81
2022/08/19 05:04:31;;;;;;;11.00;6.75;;;;;;;;;;5019003;28;20049;-80
2022/08/19 05:07:00;;;;;;;12.23;7.05;;;;;;;;;;5014825;28;20081;-80
2022/08/19 05:09:29;;;;;;;9.27;6.75;;;;;;;;;;5015466;28;20053;-80
2022/08/19 05:12:17;;;;;;;12.05;7.80;;;;;;;;;;5018714;28;20153;-80
2022/08/19 05:14:47;;;;;;;9.40;6.85;;;;;;;;;;5024131;28;20149;-80
2022/08/19 05:17:15;;;;;;;11.00;6.80;;;;;;;;;;5018603;28;20046;-81
2022/08/19 05:22:49;;;;;;;16.00;5.97;;;;;;;;;;5016568;28;20088;-80
2022/08/19 05:25:19;;;;;;;13.00;6.20;;;;;;;;;;5018708;28;20097;-80
2022/08/19 05:27:47;;;;;;;11.07;6.13;;;;;;;;;;5017654;28;20520;-80
2022/08/19 05:30:14;;;;;;;15.95;6.93;;;;;;;;;;5015737;28;20543;-80
2022/08/19 05:32:42;;;;;;;11.90;7.22;;;;;;;;;;5015362;28;20050;-82
2022/08/19 05:35:09;;;;;;;11.45;6.97;;;;;;;;;;5015205;28;20050;-82
2022/08/19 05:37:39;;;;;;;11.63;7.63;;;;;;;;;;5016545;28;20046;-81
2022/08/19 05:40:08;;;;;;;13.23;7.45;;;;;;;;;;5012493;28;20117;-81
2022/08/19 05:42:35;;;;;;;15.45;8.68;;;;;;;;;;5012973;28;20881;-81
2022/08/19 05:45:02;;;;;;;21.02;8.98;;;;;;;;;;5009827;28;20054;-82
2022/08/19 05:47:30;;;;;;;21.38;10.50;;;;;;;;;;5013726;28;20157;-81
2022/08/19 05:49:58;;;;;;;18.80;10.00;;;;;;;;;;5010323;28;20062;-81
2022/08/19 05:52:27;;;;;;;19.58;9.32;;;;;;;;;;5017106;28;20049;-81
2022/08/19 05:54:56;;;;;;;20.23;10.73;;;;;;;;;;5021167;28;21567;-81
2022/08/19 05:57:24;;;;;;;23.02;11.82;;;;;;;;;;5019238;28;20050;-82
2022/08/19 05:59:53;;;;;;;23.20;12.05;;;;;;;;;;5020391;28;20070;-80
2022/08/19 06:02:25;;;;;;;27.23;11.75;;;;;;;;;;5018959;28;20046;-81
2022/08/19 06:04:53;;;;;;;22.33;11.07;;;;;;;;;;5023699;28;20047;-81
2022/08/19 06:07:20;;;;;;;25.70;13.35;;;;;;;;;;5018392;28;20053;-81
2022/08/19 06:09:47;;;;;;;23.90;11.55;;;;;;;;;;5018341;28;20107;-82
2022/08/19 06:12:31;;;;;;;27.85;14.57;;;;;;;;;;5019833;28;20077;-81
2022/08/19 06:14:59;;;;;;;34.40;14.40;;;;;;;;;;5019549;28;20057;-81
2022/08/19 06:17:27;;;;;;;33.53;15.63;;;;;;;;;;5015829;28;20489;-81
2022/08/19 06:19:54;;;;;;;45.55;19.15;;;;;;;;;;5022629;28;20097;-80
2022/08/19 06:22:21;;;;;;;48.30;21.50;;;;;;;;;;5024331;28;20105;-81
2022/08/19 06:24:52;;;;;;;60.83;25.00;;;;;;;;;;5026185;28;20053;-80
2022/08/19 06:27:20;;;;;;;46.53;22.80;;;;;;;;;;5019446;28;20054;-81
2022/08/19 06:29:47;;;;;;;72.20;29.85;;;;;;;;;;5024523;28;20034;-81
2022/08/19 06:32:16;;;;;;;77.22;32.25;;;;;;;;;;5023790;28;20137;-81
2022/08/19 06:34:43;;;;;;;88.18;33.40;;;;;;;;;;5014449;28;20046;-81
2022/08/19 06:37:11;;;;;;;85.25;33.20;;;;;;;;;;5022826;28;20053;-81
2022/08/19 06:39:40;;;;;;;80.50;33.50;;;;;;;;;;5017875;28;20057;-81
2022/08/19 06:42:11;;;;;;;83.88;33.95;;;;;;;;;;5023385;28;20062;-80
2022/08/19 06:44:39;;;;;;;81.65;33.53;;;;;;;;;;5019564;28;20665;-80
2022/08/19 06:47:11;;;;;;;78.07;34.67;;;;;;;;;;5027483;28;20057;-80
2022/08/19 06:49:41;;;;;;;76.90;33.30;;;;;;;;;;5021382;28;20089;-80
2022/08/19 06:52:08;;;;;;;94.03;36.00;;;;;;;;;;5023738;28;20046;-80
2022/08/19 06:54:40;;;;;;;85.65;33.78;;;;;;;;;;5020482;28;20497;-80
2022/08/19 06:57:22;;;;;;;78.53;31.77;;;;;;;;;;5023778;28;20607;-80
2022/08/19 06:59:50;;;;;;;80.13;31.63;;;;;;;;;;5020116;28;20080;-80
2022/08/19 07:02:20;;;;;;;77.57;31.38;;;;;;;;;;5021281;28;20050;-79
2022/08/19 07:04:48;;;;;;;73.78;31.70;;;;;;;;;;5013796;28;20133;-80
2022/08/19 07:07:19;;;;;;;73.70;31.30;;;;;;;;;;5019017;28;20053;-80
2022/08/19 07:09:48;;;;;;;71.30;30.35;;;;;;;;;;5021438;28;20112;-80
2022/08/19 07:12:33;;;;;;;80.28;32.35;;;;;;;;;;5020510;28;20056;-80
2022/08/19 07:15:03;;;;;;;75.15;31.30;;;;;;;;;;5024171;28;20046;-79
2022/08/19 07:17:31;;;;;;;77.18;31.70;;;;;;;;;;5019340;28;20058;-76
2022/08/19 07:20:01;;;;;;;71.63;32.05;;;;;;;;;;5020112;28;20141;-77
2022/08/19 07:22:35;;;;;;;70.90;31.00;;;;;;;;;;5019177;28;20057;-77
2022/08/19 07:25:03;;;;;;;66.65;30.63;;;;;;;;;;5021570;28;20054;-77
2022/08/19 07:27:31;;;;;;;71.28;31.75;;;;;;;;;;5020027;28;20053;-77
2022/08/19 07:30:00;;;;;;;71.43;32.65;;;;;;;;;;5023388;28;20265;-78
2022/08/19 07:32:30;;;;;;;64.55;30.70;;;;;;;;;;5019044;28;20050;-77
2022/08/19 07:35:00;;;;;;;70.68;30.60;;;;;;;;;;5019452;28;20058;-77
2022/08/19 07:37:28;;;;;;;59.05;30.25;;;;;;;;;;5013967;28;20956;-77
2022/08/19 07:40:00;;;;;;;67.03;29.75;;;;;;;;;;5019465;28;20069;-76
2022/08/19 07:42:29;;;;;;;59.78;29.45;;;;;;;;;;5023816;28;20078;-76
2022/08/19 07:44:56;;;;;;;60.05;28.85;;;;;;;;;;5020784;28;20206;-75
2022/08/19 07:47:24;;;;;;;48.22;24.67;;;;;;;;;;5019509;28;20103;-76
2022/08/19 07:50:11;;;;;;;63.05;28.90;;;;;;;;;;5020876;28;20055;-76
2022/08/19 07:52:39;;;;;;;54.92;28.20;;;;;;;;;;5020421;28;20157;-76
2022/08/19 07:55:08;;;;;;;55.10;27.98;;;;;;;;;;5016870;28;20054;-75
2022/08/19 07:57:55;;;;;;;54.38;27.48;;;;;;;;;;5023347;28;20054;-78
2022/08/19 08:00:23;;;;;;;55.03;27.73;;;;;;;;;;5018903;28;20057;-79
2022/08/19 08:02:50;;;;;;;58.47;28.38;;;;;;;;;;5026379;28;20108;-78
2022/08/19 08:10:58;;;;;;;49.10;26.20;;;;;;;;;;5027688;28;20811;-78
2022/08/19 08:13:26;;;;;;;47.13;25.27;;;;;;;;;;5023387;28;20508;-78
2022/08/19 08:15:54;;;;;;;46.80;23.95;;;;;;;;;;5019888;28;20125;-78
2022/08/19 08:18:23;;;;;;;41.70;23.08;;;;;;;;;;5021656;28;20097;-79
2022/08/19 08:20:57;;;;;;;49.33;24.80;;;;;;;;;;5021245;28;20054;-78
2022/08/19 08:23:25;;;;;;;48.85;24.00;;;;;;;;;;5021375;28;20046;-78
2022/08/19 08:25:54;;;;;;;39.78;20.65;;;;;;;;;;5025564;28;20072;-78
2022/08/19 08:28:22;;;;;;;38.08;20.90;;;;;;;;;;5025503;28;20045;-79
2022/08/19 08:30:51;;;;;;;36.88;20.52;;;;;;;;;;5019975;28;20046;-78
2022/08/19 08:33:24;;;;;;;34.35;20.17;;;;;;;;;;5022845;28;20050;-79
2022/08/19 08:36:00;;;;;;;37.97;20.27;;;;;;;;;;5024054;28;20055;-78
2022/08/19 08:38:32;;;;;;;38.17;20.48;;;;;;;;;;5021432;28;20062;-79
2022/08/19 08:41:21;;;;;;;29.67;18.38;;;;;;;;;;5022263;28;20067;-79
2022/08/19 08:43:51;;;;;;;31.95;18.40;;;;;;;;;;5024179;28;20050;-79
2022/08/19 08:46:51;;;;;;;35.92;18.38;;;;;;;;;;5023351;28;20136;-80
2022/08/19 08:49:41;;;;;;;30.88;18.33;;;;;;;;;;5021690;28;20877;-78
2022/08/19 08:52:28;;;;;;;30.38;17.88;;;;;;;;;;5025699;28;20101;-79
2022/08/19 08:55:02;;;;;;;30.77;17.85;;;;;;;;;;5017914;28;20108;-78
2022/08/19 08:57:54;;;;;;;31.30;17.77;;;;;;;;;;5016181;28;20057;-77
2022/08/19 09:00:33;;;;;;;32.47;17.60;;;;;;;;;;5019103;28;20111;-77
2022/08/19 09:03:01;;;;;;;25.08;16.25;;;;;;;;;;5015777;28;20590;-77
2022/08/19 09:05:42;;;;;;;29.80;17.25;;;;;;;;;;5021093;28;20093;-78
2022/08/19 09:08:24;;;;;;;32.63;17.10;;;;;;;;;;5017760;28;20050;-78
2022/08/19 09:10:54;;;;;;;28.08;16.00;;;;;;;;;;5016435;28;20920;-77
2022/08/19 09:13:57;;;;;;;26.83;15.57;;;;;;;;;;5016435;28;20050;-79
2022/08/19 09:16:27;;;;;;;26.00;14.80;;;;;;;;;;4998156;28;20189;-77
2022/08/19 09:19:06;;;;;;;26.33;15.02;;;;;;;;;;4997800;28;20054;-77
2022/08/19 09:21:34;;;;;;;24.55;13.95;;;;;;;;;;4997943;28;20058;-77
2022/08/19 09:24:03;;;;;;;24.83;13.98;;;;;;;;;;4996764;28;20055;-77
2022/08/19 09:26:32;;;;;;;30.35;14.20;;;;;;;;;;4998190;28;20137;-78
2022/08/19 09:29:19;;;;;;;24.63;13.18;;;;;;;;;;4998778;28;20093;-79
2022/08/19 09:31:49;;;;;;;21.38;12.98;;;;;;;;;;4999548;28;20196;-77
2022/08/19 09:34:17;;;;;;;21.08;12.85;;;;;;;;;;5002572;28;20508;-77
2022/08/19 09:36:52;;;;;;;27.00;13.00;;;;;;;;;;4999618;28;20065;-77
2022/08/19 09:39:20;;;;;;;21.58;13.00;;;;;;;;;;4999734;28;20054;-78
2022/08/19 09:41:49;;;;;;;19.20;12.18;;;;;;;;;;5002037;28;20150;-77
2022/08/19 09:44:16;;;;;;;24.95;13.65;;;;;;;;;;5001572;28;20055;-77
2022/08/19 09:46:46;;;;;;;26.58;11.75;;;;;;;;;;4999608;28;20046;-77
2022/08/19 09:49:15;;;;;;;23.90;12.32;;;;;;;;;;5001516;28;20051;-77
2022/08/19 09:51:44;;;;;;;18.75;11.65;;;;;;;;;;5020882;28;20057;-76
2022/08/19 09:54:17;;;;;;;22.70;11.90;;;;;;;;;;5023067;28;20547;-77
2022/08/19 09:56:53;;;;;;;20.75;12.07;;;;;;;;;;5020078;28;20081;-77
2022/08/19 09:59:21;;;;;;;19.33;13.10;;;;;;;;;;5023287;28;20100;-77
2022/08/19 10:01:48;;;;;;;20.63;12.88;;;;;;;;;;5021195;28;20054;-77
2022/08/19 10:04:16;;;;;;;20.13;11.95;;;;;;;;;;5020542;28;20066;-77
2022/08/19 10:06:49;;;;;;;23.98;13.35;;;;;;;;;;5021750;28;20057;-78
2022/08/19 10:09:20;;;;;;;18.42;12.90;;;;;;;;;;5020761;28;20058;-77
2022/08/19 10:12:01;;;;;;;17.70;12.30;;;;;;;;;;5016441;28;20101;-77
2022/08/19 10:14:29;;;;;;;23.15;12.35;;;;;;;;;;5019979;28;20847;-77
2022/08/19 10:16:57;;;;;;;26.05;13.40;;;;;;;;;;5019862;28;20046;-77
2022/08/19 10:19:25;;;;;;;21.23;13.63;;;;;;;;;;5015740;28;20070;-78
2022/08/19 10:21:54;;;;;;;22.58;14.25;;;;;;;;;;5018593;28;20090;-77
2022/08/19 10:24:27;;;;;;;25.13;14.13;;;;;;;;;;5017969;28;20056;-77
2022/08/19 10:26:55;;;;;;;23.73;13.93;;;;;;;;;;5020957;28;20077;-77
2022/08/19 10:29:28;;;;;;;22.85;14.25;;;;;;;;;;5021476;28;20054;-78
2022/08/19 10:32:00;;;;;;;23.92;14.77;;;;;;;;;;5015762;28;20053;-77
2022/08/19 10:34:29;;;;;;;21.40;15.52;;;;;;;;;;5017465;28;20082;-78
2022/08/19 10:37:00;;;;;;;23.10;14.93;;;;;;;;;;5015627;28;20064;-78
2022/08/19 10:39:32;;;;;;;23.83;15.90;;;;;;;;;;5020239;28;20058;-79
2022/08/19 10:42:13;;;;;;;24.75;17.95;;;;;;;;;;5016950;28;20093;-79
2022/08/19 10:44:41;;;;;;;27.38;17.15;;;;;;;;;;5027330;28;20093;-80
2022/08/19 10:47:11;;;;;;;29.02;18.30;;;;;;;;;;5025908;28;20061;-79
2022/08/19 10:52:40;;;;;;;31.55;19.25;;;;;;;;;;5019142;28;20061;-80
2022/08/19 10:58:02;;;;;;;33.45;20.63;;;;;;;;;;5022872;28;20537;-79
2022/08/19 11:00:31;;;;;;;33.38;21.13;;;;;;;;;;5021405;28;20049;-79
2022/08/19 11:02:58;;;;;;;33.58;20.20;;;;;;;;;;5029252;28;20061;-78
2022/08/19 11:05:25;;;;;;;33.63;21.35;;;;;;;;;;5015544;28;20089;-79
2022/08/19 11:07:53;;;;;;;34.90;21.42;;;;;;;;;;5015969;28;20060;-78
2022/08/19 11:10:21;;;;;;;28.42;19.50;;;;;;;;;;5013171;28;20050;-79
2022/08/19 11:12:52;;;;;;;30.90;20.45;;;;;;;;;;5014064;28;20129;-78
2022/08/19 11:15:20;;;;;;;29.58;19.98;;;;;;;;;;5015630;28;20046;-81
2022/08/19 11:17:48;;;;;;;35.17;22.48;;;;;;;;;;5020272;28;20925;-79
2022/08/19 11:20:15;;;;;;;36.83;21.70;;;;;;;;;;5016742;28;20056;-79
2022/08/19 11:22:43;;;;;;;33.08;22.13;;;;;;;;;;5022503;28;20051;-80
2022/08/19 11:25:11;;;;;;;37.67;22.33;;;;;;;;;;5021148;28;20050;-78
2022/08/19 11:27:42;;;;;;;36.97;22.13;;;;;;;;;;5018145;28;20054;-80
2022/08/19 11:30:11;;;;;;;38.85;21.75;;;;;;;;;;5019269;28;20508;-80
2022/08/19 11:32:40;;;;;;;36.08;21.77;;;;;;;;;;5020927;28;20050;-79
2022/08/19 11:35:15;;;;;;;36.53;22.77;;;;;;;;;;5023525;28;20046;-79
2022/08/19 11:37:43;;;;;;;36.20;22.67;;;;;;;;;;5022398;28;20106;-82
2022/08/19 11:40:11;;;;;;;36.50;22.15;;;;;;;;;;5021524;28;20133;-80
2022/08/19 11:42:56;;;;;;;35.40;22.23;;;;;;;;;;5019276;28;20492;-81
2022/08/19 11:45:25;;;;;;;33.50;21.98;;;;;;;;;;5023212;28;20107;-80
2022/08/19 11:47:52;;;;;;;34.13;22.02;;;;;;;;;;5023004;28;20041;-82
2022/08/19 11:50:20;;;;;;;36.58;21.45;;;;;;;;;;5020941;28;20050;-80
2022/08/19 11:52:49;;;;;;;35.88;22.60;;;;;;;;;;5021450;28;20162;-79
2022/08/19 11:55:16;;;;;;;31.77;20.45;;;;;;;;;;5018944;28;20054;-79
2022/08/19 11:57:44;;;;;;;35.50;22.15;;;;;;;;;;5022195;28;20488;-80
2022/08/19 12:00:13;;;;;;;35.30;20.80;;;;;;;;;;5020391;28;20057;-81
2022/08/19 12:02:40;;;;;;;38.92;22.13;;;;;;;;;;5021897;28;20065;-79
2022/08/19 12:05:07;;;;;;;44.22;21.40;;;;;;;;;;5023002;28;20042;-80
2022/08/19 12:07:39;;;;;;;31.73;21.10;;;;;;;;;;5024899;28;20092;-80
2022/08/19 12:10:08;;;;;;;31.05;20.33;;;;;;;;;;5016443;28;20130;-80
2022/08/19 12:12:42;;;;;;;29.05;19.95;;;;;;;;;;5009445;28;20515;-81
2022/08/19 12:15:10;;;;;;;30.67;19.70;;;;;;;;;;5011499;28;20050;-80
2022/08/19 12:17:38;;;;;;;29.35;19.52;;;;;;;;;;5013195;28;20053;-80
2022/08/19 12:20:06;;;;;;;29.25;19.85;;;;;;;;;;5015715;28;20082;-81
2022/08/19 12:22:34;;;;;;;25.98;17.90;;;;;;;;;;5013994;28;20093;-81
2022/08/19 12:25:02;;;;;;;35.28;20.25;;;;;;;;;;5020737;28;20170;-81
2022/08/19 12:27:29;;;;;;;35.38;20.27;;;;;;;;;;5011814;28;20551;-82
2022/08/19 12:30:09;;;;;;;31.40;18.75;;;;;;;;;;5010331;28;20050;-80
2022/08/19 12:32:37;;;;;;;27.52;16.75;;;;;;;;;;5016116;28;20050;-80
2022/08/19 12:35:05;;;;;;;24.75;17.25;;;;;;;;;;5015646;28;20165;-81
2022/08/19 12:37:33;;;;;;;24.52;15.77;;;;;;;;;;5013940;28;20077;-80
2022/08/19 12:40:00;;;;;;;28.88;15.93;;;;;;;;;;5008383;28;20060;-80
2022/08/19 12:42:29;;;;;;;20.83;14.98;;;;;;;;;;5009344;28;20061;-80
2022/08/19 12:44:56;;;;;;;24.23;14.82;;;;;;;;;;5009159;28;20054;-81
2022/08/19 12:47:26;;;;;;;24.80;13.88;;;;;;;;;;5012443;28;20052;-80
2022/08/19 12:49:54;;;;;;;24.80;13.70;;;;;;;;;;5017393;28;20057;-81
2022/08/19 12:52:26;;;;;;;20.08;13.60;;;;;;;;;;5013856;28;20079;-82
2022/08/19 12:54:56;;;;;;;25.52;14.70;;;;;;;;;;5016798;28;20085;-82
2022/08/19 12:57:24;;;;;;;20.67;13.35;;;;;;;;;;5021285;28;20062;-80
2022/08/19 13:00:00;;;;;;;19.20;12.38;;;;;;;;;;5009657;28;20105;-83
2022/08/19 13:02:31;;;;;;;16.40;11.25;;;;;;;;;;5018429;28;20065;-83
2022/08/19 13:05:06;;;;;;;16.08;10.80;;;;;;;;;;5019614;28;20060;-82
2022/08/19 13:07:33;;;;;;;13.15;9.65;;;;;;;;;;5020144;28;20047;-83
2022/08/19 13:10:01;;;;;;;14.88;8.80;;;;;;;;;;5017617;28;20046;-83
2022/08/19 13:12:29;;;;;;;15.10;8.70;;;;;;;;;;5015373;28;20053;-82
2022/08/19 13:14:56;;;;;;;12.55;9.57;;;;;;;;;;5014518;28;20062;-81
2022/08/19 13:17:24;;;;;;;16.00;8.88;;;;;;;;;;5017039;28;20054;-81
2022/08/19 13:19:53;;;;;;;15.38;7.57;;;;;;;;;;5016116;28;20038;-81
2022/08/19 13:22:20;;;;;;;14.32;9.18;;;;;;;;;;5018040;28;20894;-80
2022/08/19 13:24:48;;;;;;;13.05;8.90;;;;;;;;;;5014302;28;20120;-81
2022/08/19 13:27:15;;;;;;;21.13;10.38;;;;;;;;;;5020890;28;20050;-80
2022/08/19 13:35:16;;;;;;;15.55;10.13;;;;;;;;;;5014690;28;21152;-80
2022/08/19 13:37:45;;;;;;;15.48;10.30;;;;;;;;;;5009369;28;20130;-80
2022/08/19 13:40:18;;;;;;;17.65;9.57;;;;;;;;;;5011939;28;20161;-80
2022/08/19 13:42:47;;;;;;;17.58;9.10;;;;;;;;;;5019173;28;20058;-80
2022/08/19 13:45:17;;;;;;;14.98;9.13;;;;;;;;;;5017995;28;20149;-80
2022/08/19 13:47:46;;;;;;;14.27;8.90;;;;;;;;;;5018439;28;20543;-81
2022/08/19 13:50:16;;;;;;;14.93;9.15;;;;;;;;;;5013610;28;20146;-80
2022/08/19 13:52:45;;;;;;;24.75;10.45;;;;;;;;;;5011552;28;20080;-80
2022/08/19 13:55:12;;;;;;;32.28;13.10;;;;;;;;;;5015651;28;20046;-80
2022/08/19 13:57:40;;;;;;;24.83;14.32;;;;;;;;;;5010030;28;20517;-80
2022/08/19 14:00:12;;;;;;;21.42;12.05;;;;;;;;;;5021660;28;20060;-79
2022/08/19 14:02:40;;;;;;;22.95;15.20;;;;;;;;;;5020097;28;20963;-80
2022/08/19 14:05:10;;;;;;;23.00;12.63;;;;;;;;;;5015735;28;20054;-80
2022/08/19 14:07:38;;;;;;;22.92;12.57;;;;;;;;;;5018354;28;20053;-79
2022/08/19 14:10:07;;;;;;;23.00;13.02;;;;;;;;;;5019411;28;20100;-80
2022/08/19 14:12:34;;;;;;;20.35;11.80;;;;;;;;;;5011220;28;20061;-79
2022/08/19 14:15:02;;;;;;;15.55;11.40;;;;;;;;;;5020414;28;20124;-79
2022/08/19 14:17:30;;;;;;;20.33;11.63;;;;;;;;;;5015422;28;20150;-81
2022/08/19 14:19:58;;;;;;;18.02;10.55;;;;;;;;;;5020778;28;20046;-78
2022/08/19 14:22:30;;;;;;;17.15;10.25;;;;;;;;;;5022185;28;20587;-78
2022/08/19 14:24:58;;;;;;;15.90;10.50;;;;;;;;;;5025337;28;20042;-81
2022/08/19 14:27:26;;;;;;;14.18;10.02;;;;;;;;;;5019680;28;20056;-81
2022/08/19 14:29:53;;;;;;;14.20;9.80;;;;;;;;;;5020022;28;20046;-81
2022/08/19 14:32:21;;;;;;;13.52;9.13;;;;;;;;;;5020479;28;20046;-81
2022/08/19 14:34:48;;;;;;;16.67;11.02;;;;;;;;;;5018900;28;20046;-81
2022/08/19 14:37:15;;;;;;;15.02;10.35;;;;;;;;;;5020615;28;20133;-81
2022/08/19 14:39:46;;;;;;;18.08;11.50;;;;;;;;;;5017090;28;20061;-80
2022/08/19 14:42:14;;;;;;;18.08;10.82;;;;;;;;;;5020218;28;20061;-81
2022/08/19 14:44:42;;;;;;;13.02;9.95;;;;;;;;;;5017640;28;20060;-79
2022/08/19 14:47:10;;;;;;;12.60;9.35;;;;;;;;;;5020882;28;20050;-80
2022/08/19 14:49:39;;;;;;;13.93;10.80;;;;;;;;;;5021171;28;20077;-81
2022/08/19 14:52:12;;;;;;;14.02;9.30;;;;;;;;;;5020836;28;20057;-78
2022/08/19 14:54:39;;;;;;;12.57;7.88;;;;;;;;;;5014237;28;20480;-80
2022/08/19 14:57:07;;;;;;;13.50;7.60;;;;;;;;;;5023041;28;20050;-80
2022/08/19 14:59:35;;;;;;;9.77;7.07;;;;;;;;;;5016804;28;20108;-80
2022/08/19 15:02:02;;;;;;;8.85;6.75;;;;;;;;;;5020341;28;20419;-80
2022/08/19 15:04:50;;;;;;;8.07;7.13;;;;;;;;;;5019619;28;20098;-80
2022/08/19 15:07:25;;;;;;;8.32;6.50;;;;;;;;;;5021716;28;20057;-79